Bookmark and Share
Track history (hours):
 

Sedov (Russia)

Last reported at 2014-Apr-23 11:10 UTC. Time now 2014-Apr-23 18:57 UTC.
Position N 38°22' E 008°28'.

Length 118 m; draft 6.5 m.

Type: Sailing vessel. MMSI: 273510000.

NotesDate/timePositionNaut miles runAvg speedWind from/ knotsBaromVisibWave heightAir tempDewpointWater temp
2014-Apr-23 11:10N 38°22' E 008°28'1910.3
2014-Apr-23 09:19N 38°33' E 008°08'235 9.5
2014-Apr-22 08:29N 41°46' E 005°11'10 9.7
2014-Apr-22 07:25N 41°54' E 005°03'39 9.0
2014-Apr-22 03:04N 42°27' E 004°35'14 9.0
2014-Apr-22 01:33N 42°38' E 004°25'9 8.7
2014-Apr-22 00:33N 42°46' E 004°19'9 9.0
2014-Apr-21 23:31N 42°54' E 004°12'8 8.7
2014-Apr-21 22:32N 43°00' E 004°05'9 9.3
2014-Apr-21 21:34N 43°08' E 003°57'9 8.7
2014-Apr-21 20:32N 43°15' E 003°51'4 3.7
2014-Apr-21 19:33N 43°17' E 003°46'5 4.8
2014-Apr-21 18:33N 43°21' E 003°42'2 1.7
2014-Apr-21 17:33N 43°21' E 003°40'2 2.1
2014-Apr-21 16:33N 43°23' E 003°42'2 1.5
2014-Apr-21 15:33N 43°24' E 003°44'1 1.1
2014-Apr-21 14:28N 43°24' E 003°42'0 0.0
2014-Apr-21 13:30N 43°24' E 003°42'0 0.0
2014-Apr-21 11:11N 43°24' E 003°42'0 0.0
2014-Apr-21 10:13N 43°24' E 003°42'0 0.0
2014-Apr-21 09:29N 43°24' E 003°42'0 0.0
2014-Apr-21 07:22N 43°24' E 003°42'0 0.0
2014-Apr-21 06:16N 43°24' E 003°42'0 0.0
2014-Apr-21 05:06N 43°24' E 003°42'0 0.0
2014-Apr-21 04:32N 43°24' E 003°42'0 0.0
2014-Apr-21 02:23N 43°24' E 003°42'0 0.0
2014-Apr-21 01:23N 43°24' E 003°42'0 0.0
2014-Apr-21 00:20N 43°24' E 003°42'0 0.0
2014-Apr-20 23:32N 43°24' E 003°42'0 0.0
2014-Apr-20 21:26N 43°24' E 003°42'0 0.0
2014-Apr-20 20:32N 43°24' E 003°42'0 0.0
2014-Apr-20 19:10N 43°24' E 003°42'0 0.0
2014-Apr-20 17:12N 43°24' E 003°42'0 0.0
2014-Apr-20 16:32N 43°24' E 003°42'0 0.0
2014-Apr-20 15:31N 43°24' E 003°42'0 0.0
2014-Apr-20 14:33N 43°24' E 003°42'0 0.0
2014-Apr-20 13:03N 43°24' E 003°42'0 0.0
2014-Apr-20 12:25N 43°24' E 003°42'0 0.0
2014-Apr-20 11:25N 43°24' E 003°42'0 0.0
2014-Apr-20 10:25N 43°24' E 003°42'0 0.0
2014-Apr-20 09:29N 43°24' E 003°42'0 0.0
2014-Apr-20 08:12N 43°24' E 003°42'0 0.0
2014-Apr-20 07:29N 43°24' E 003°42'0 0.0
2014-Apr-20 06:04N 43°24' E 003°42'0 0.0
2014-Apr-20 05:32N 43°24' E 003°42'0 0.0
2014-Apr-20 04:29N 43°24' E 003°42'0 0.0
2014-Apr-20 03:18N 43°24' E 003°42'0 0.0
2014-Apr-20 02:29N 43°24' E 003°42'0 0.0
2014-Apr-20 00:32N 43°24' E 003°42'0 0.0
2014-Apr-19 20:29N 43°24' E 003°42'0 0.0
2014-Apr-19 19:31N 43°24' E 003°42'0 0.0
2014-Apr-19 17:33N 43°24' E 003°42'0 0.0
2014-Apr-19 16:31N 43°24' E 003°42'0 0.0
2014-Apr-19 15:33N 43°24' E 003°42'0 0.0
2014-Apr-19 14:33N 43°24' E 003°42'0 0.0
2014-Apr-19 12:33N 43°24' E 003°42'0 0.0
2014-Apr-19 11:33N 43°24' E 003°42'0 0.0
2014-Apr-19 10:33N 43°24' E 003°42'0 0.0
2014-Apr-19 09:33N 43°24' E 003°42'0 0.0
2014-Apr-19 07:31N 43°24' E 003°42'0 0.0
2014-Apr-19 06:25N 43°24' E 003°42'0 0.0
2014-Apr-19 05:24N 43°24' E 003°42'0 0.0
2014-Apr-19 04:31N 43°24' E 003°42'0 0.0
2014-Apr-19 02:28N 43°24' E 003°42'0 0.0
2014-Apr-18 21:23N 43°24' E 003°42'0 0.0
2014-Apr-18 17:17N 43°24' E 003°42'0 0.0
2014-Apr-18 15:05N 43°24' E 003°42'0 0.0
2014-Apr-18 12:33N 43°24' E 003°42'0 0.0
2014-Apr-18 09:13N 43°24' E 003°42'0 0.0
2014-Apr-18 07:14N 43°24' E 003°42'0 0.0
2014-Apr-18 04:26N 43°24' E 003°42'0 0.0
2014-Apr-18 03:21N 43°24' E 003°42'0 0.0
2014-Apr-18 02:26N 43°24' E 003°42'0 0.0
2014-Apr-18 01:32N 43°24' E 003°42'0 0.0
2014-Apr-18 00:20N 43°24' E 003°42'0 0.0
2014-Apr-17 23:23N 43°24' E 003°42'0 0.0
2014-Apr-17 21:30N 43°24' E 003°42'0 0.0
2014-Apr-17 19:19N 43°24' E 003°42'0 0.0
2014-Apr-17 17:20N 43°24' E 003°42'0 0.0
2014-Apr-17 14:11N 43°24' E 003°42'0 0.0
2014-Apr-17 11:05N 43°24' E 003°42'0 0.0
2014-Apr-17 07:15N 43°24' E 003°42'0 0.0
2014-Apr-16 21:26N 43°24' E 003°42'0 0.0
2014-Apr-16 20:14N 43°24' E 003°42'0 0.0
2014-Apr-16 17:17N 43°24' E 003°42'0 0.0
2014-Apr-16 16:26N 43°24' E 003°42'0 0.0
2014-Apr-16 10:15N 43°24' E 003°42'0 0.0
2014-Apr-16 00:07N 43°24' E 003°42'0 0.0
2014-Apr-15 23:16N 43°24' E 003°42'0 0.0
2014-Apr-15 16:22N 43°24' E 003°42'0 0.0
2014-Apr-15 08:34N 43°24' E 003°42'4 1.9
2014-Apr-15 06:31N 43°21' E 003°45'25 4.3
2014-Apr-15 00:34N 43°01' E 004°07'7 7.2
2014-Apr-14 23:34N 42°56' E 004°14'4 3.6
2014-Apr-14 22:33N 42°53' E 004°18'1 0.4
2014-Apr-14 20:34N 42°54' E 004°17'1 1.0
2014-Apr-14 19:33N 42°53' E 004°16'1 1.3
2014-Apr-14 18:33N 42°52' E 004°14'3 1.5
2014-Apr-14 16:31N 42°50' E 004°12'3 2.9
2014-Apr-14 15:34N 42°47' E 004°13'1 0.8
2014-Apr-14 14:33N 42°47' E 004°12'0 0.4
2014-Apr-14 13:33N 42°47' E 004°12'11 5.6
2014-Apr-14 11:33N 42°38' E 004°21'9 8.7
2014-Apr-14 10:33N 42°31' E 004°27'7 7.2
2014-Apr-14 09:33N 42°25' E 004°33'1 0.6
2014-Apr-14 08:31N 42°24' E 004°34'2 1.2
2014-Apr-14 06:32N 42°27' E 004°33'1 1.3
2014-Apr-14 05:30N 42°28' E 004°33'55 7.4
2014-Apr-13 22:09N 41°42' E 003°55'610.0
2014-Apr-13 21:33N 41°36' E 003°51'9 9.4
2014-Apr-13 20:33N 41°28' E 003°44'12 8.3
2014-Apr-13 19:09N 41°18' E 003°37'0 0.5
2014-Apr-13 18:26N 41°18' E 003°36'0 0.3
2014-Apr-13 17:33N 41°18' E 003°36'1 0.5
2014-Apr-13 16:33N 41°18' E 003°35'0 0.5
2014-Apr-13 15:33N 41°19' E 003°35'1 0.6
2014-Apr-13 14:33N 41°19' E 003°34'1 0.6
2014-Apr-13 13:03N 41°20' E 003°34'0 0.5
2014-Apr-13 12:33N 41°20' E 003°33'0 0.3
2014-Apr-13 11:33N 41°20' E 003°33'  

Dump ship's entire track history

sailing weather and tide predictions

Sedov — UELO — position and weather